sensor_id;sensor_type;location;lat;lon;timestamp;temperature;humidity
7204;DHT22;3643;52.460;13.322;2022-12-10T00:01:49;-1.20;99.90
7204;DHT22;3643;52.460;13.322;2022-12-10T00:04:20;-1.20;99.90
7204;DHT22;3643;52.460;13.322;2022-12-10T00:06:50;-1.20;99.90
7204;DHT22;3643;52.460;13.322;2022-12-10T00:09:19;-1.20;99.90
7204;DHT22;3643;52.460;13.322;2022-12-10T00:11:54;-1.20;99.90
7204;DHT22;3643;52.460;13.322;2022-12-10T00:14:22;-1.20;99.90
7204;DHT22;3643;52.460;13.322;2022-12-10T00:16:51;-1.20;99.90
7204;DHT22;3643;52.460;13.322;2022-12-10T00:19:21;-1.20;99.90
7204;DHT22;3643;52.460;13.322;2022-12-10T00:21:49;-1.20;99.90
7204;DHT22;3643;52.460;13.322;2022-12-10T00:24:18;-1.20;99.90
7204;DHT22;3643;52.460;13.322;2022-12-10T00:26:48;-1.20;99.90
7204;DHT22;3643;52.460;13.322;2022-12-10T00:29:18;-1.20;99.90
7204;DHT22;3643;52.460;13.322;2022-12-10T00:31:46;-1.30;99.90
7204;DHT22;3643;52.460;13.322;2022-12-10T00:34:15;-1.30;99.90
7204;DHT22;3643;52.460;13.322;2022-12-10T00:36:46;-1.30;99.90
7204;DHT22;3643;52.460;13.322;2022-12-10T00:39:17;-1.30;99.90
7204;DHT22;3643;52.460;13.322;2022-12-10T00:41:47;-1.40;99.90
7204;DHT22;3643;52.460;13.322;2022-12-10T00:44:16;-1.30;99.90
7204;DHT22;3643;52.460;13.322;2022-12-10T00:46:45;-1.40;99.90
7204;DHT22;3643;52.460;13.322;2022-12-10T00:49:16;-1.40;99.90
7204;DHT22;3643;52.460;13.322;2022-12-10T00:51:47;-1.40;99.90
7204;DHT22;3643;52.460;13.322;2022-12-10T00:54:16;-1.50;99.90
7204;DHT22;3643;52.460;13.322;2022-12-10T00:56:44;-1.50;99.90
7204;DHT22;3643;52.460;13.322;2022-12-10T00:59:14;-1.50;99.90
7204;DHT22;3643;52.460;13.322;2022-12-10T01:01:42;-1.50;99.90
7204;DHT22;3643;52.460;13.322;2022-12-10T01:04:13;-1.50;99.90
7204;DHT22;3643;52.460;13.322;2022-12-10T01:06:44;-1.50;99.90
7204;DHT22;3643;52.460;13.322;2022-12-10T01:09:17;-1.60;99.90
7204;DHT22;3643;52.460;13.322;2022-12-10T01:11:49;-1.50;99.90
7204;DHT22;3643;52.460;13.322;2022-12-10T01:14:20;-1.50;99.90
7204;DHT22;3643;52.460;13.322;2022-12-10T01:16:53;-1.60;99.90
7204;DHT22;3643;52.460;13.322;2022-12-10T01:19:22;-1.60;99.90
7204;DHT22;3643;52.460;13.322;2022-12-10T01:21:51;-1.60;99.90
7204;DHT22;3643;52.460;13.322;2022-12-10T01:24:24;-1.60;99.90
7204;DHT22;3643;52.460;13.322;2022-12-10T01:26:54;-1.60;99.90
7204;DHT22;3643;52.460;13.322;2022-12-10T01:29:24;-1.70;99.90
7204;DHT22;3643;52.460;13.322;2022-12-10T01:31:55;-1.60;99.90
7204;DHT22;3643;52.460;13.322;2022-12-10T01:34:24;-1.60;99.90
7204;DHT22;3643;52.460;13.322;2022-12-10T01:36:54;-1.50;99.90
7204;DHT22;3643;52.460;13.322;2022-12-10T01:39:24;-1.50;99.90
7204;DHT22;3643;52.460;13.322;2022-12-10T01:41:54;-1.50;99.90
7204;DHT22;3643;52.460;13.322;2022-12-10T01:45:04;-1.50;99.90
7204;DHT22;3643;52.460;13.322;2022-12-10T01:47:34;-1.60;99.90
7204;DHT22;3643;52.460;13.322;2022-12-10T01:50:04;-1.60;99.90
7204;DHT22;3643;52.460;13.322;2022-12-10T01:52:35;-1.60;99.90
7204;DHT22;3643;52.460;13.322;2022-12-10T01:57:52;-1.60;99.90
7204;DHT22;3643;52.460;13.322;2022-12-10T02:00:21;-1.60;99.90
7204;DHT22;3643;52.460;13.322;2022-12-10T02:02:54;-1.60;99.90
7204;DHT22;3643;52.460;13.322;2022-12-10T02:05:30;-1.50;99.90
7204;DHT22;3643;52.460;13.322;2022-12-10T02:08:07;-1.50;99.90
7204;DHT22;3643;52.460;13.322;2022-12-10T02:10:48;-1.50;99.90
7204;DHT22;3643;52.460;13.322;2022-12-10T02:13:24;-1.60;99.90
7204;DHT22;3643;52.460;13.322;2022-12-10T02:15:59;-1.60;99.90
7204;DHT22;3643;52.460;13.322;2022-12-10T02:18:33;-1.60;99.90
7204;DHT22;3643;52.460;13.322;2022-12-10T02:21:06;-1.60;99.90
7204;DHT22;3643;52.460;13.322;2022-12-10T02:23:39;-1.60;99.90
7204;DHT22;3643;52.460;13.322;2022-12-10T02:26:15;-1.60;99.90
7204;DHT22;3643;52.460;13.322;2022-12-10T02:28:51;-1.60;99.90
7204;DHT22;3643;52.460;13.322;2022-12-10T02:31:26;-1.60;99.90
7204;DHT22;3643;52.460;13.322;2022-12-10T02:33:59;-1.70;99.90
7204;DHT22;3643;52.460;13.322;2022-12-10T02:36:32;-1.80;99.90
7204;DHT22;3643;52.460;13.322;2022-12-10T02:39:02;-1.80;99.90
7204;DHT22;3643;52.460;13.322;2022-12-10T02:41:34;-1.80;99.90
7204;DHT22;3643;52.460;13.322;2022-12-10T02:44:10;-1.80;99.90
7204;DHT22;3643;52.460;13.322;2022-12-10T02:46:44;-1.80;99.90
7204;DHT22;3643;52.460;13.322;2022-12-10T02:49:14;-1.80;99.90
7204;DHT22;3643;52.460;13.322;2022-12-10T02:51:44;-1.90;99.90
7204;DHT22;3643;52.460;13.322;2022-12-10T02:54:35;-1.80;99.90
7204;DHT22;3643;52.460;13.322;2022-12-10T02:57:14;-1.90;99.90
7204;DHT22;3643;52.460;13.322;2022-12-10T02:59:54;-2.00;99.90
7204;DHT22;3643;52.460;13.322;2022-12-10T03:02:38;-2.10;99.90
7204;DHT22;3643;52.460;13.322;2022-12-10T03:05:15;-2.20;99.90
7204;DHT22;3643;52.460;13.322;2022-12-10T03:07:48;-2.10;99.90
7204;DHT22;3643;52.460;13.322;2022-12-10T03:10:24;-2.10;99.90
7204;DHT22;3643;52.460;13.322;2022-12-10T03:12:58;-2.10;99.90
7204;DHT22;3643;52.460;13.322;2022-12-10T03:15:31;-2.20;99.90
7204;DHT22;3643;52.460;13.322;2022-12-10T03:18:04;-2.10;99.90
7204;DHT22;3643;52.460;13.322;2022-12-10T03:20:37;-2.10;99.90
7204;DHT22;3643;52.460;13.322;2022-12-10T03:23:13;-2.20;99.90
7204;DHT22;3643;52.460;13.322;2022-12-10T03:25:50;-2.20;99.90
7204;DHT22;3643;52.460;13.322;2022-12-10T03:28:20;-2.20;99.90
7204;DHT22;3643;52.460;13.322;2022-12-10T03:30:50;-2.10;99.90
7204;DHT22;3643;52.460;13.322;2022-12-10T03:33:22;-2.10;99.90
7204;DHT22;3643;52.460;13.322;2022-12-10T03:35:51;-2.10;99.90
7204;DHT22;3643;52.460;13.322;2022-12-10T03:38:21;-2.10;99.90
7204;DHT22;3643;52.460;13.322;2022-12-10T03:40:50;-2.10;99.90
7204;DHT22;3643;52.460;13.322;2022-12-10T03:43:18;-2.20;99.90
7204;DHT22;3643;52.460;13.322;2022-12-10T03:45:49;-2.20;99.90
7204;DHT22;3643;52.460;13.322;2022-12-10T03:48:17;-2.20;99.90
7204;DHT22;3643;52.460;13.322;2022-12-10T03:50:47;-2.20;99.90
7204;DHT22;3643;52.460;13.322;2022-12-10T03:53:15;-2.20;99.90
7204;DHT22;3643;52.460;13.322;2022-12-10T03:55:44;-2.20;99.90
7204;DHT22;3643;52.460;13.322;2022-12-10T03:58:12;-2.20;99.90
7204;DHT22;3643;52.460;13.322;2022-12-10T04:00:46;-2.20;99.90
7204;DHT22;3643;52.460;13.322;2022-12-10T04:03:14;-2.20;99.90
7204;DHT22;3643;52.460;13.322;2022-12-10T04:05:51;-2.20;99.90
7204;DHT22;3643;52.460;13.322;2022-12-10T04:08:19;-2.20;99.90
7204;DHT22;3643;52.460;13.322;2022-12-10T04:10:48;-2.10;99.90
7204;DHT22;3643;52.460;13.322;2022-12-10T04:13:16;-2.10;99.90
7204;DHT22;3643;52.460;13.322;2022-12-10T04:16:02;-2.10;99.90
7204;DHT22;3643;52.460;13.322;2022-12-10T04:18:48;-2.10;99.90
7204;DHT22;3643;52.460;13.322;2022-12-10T04:21:19;-2.00;99.90
7204;DHT22;3643;52.460;13.322;2022-12-10T04:24:08;-2.00;99.90
7204;DHT22;3643;52.460;13.322;2022-12-10T04:26:54;-2.00;99.90
7204;DHT22;3643;52.460;13.322;2022-12-10T04:29:24;-1.90;99.90
7204;DHT22;3643;52.460;13.322;2022-12-10T04:31:54;-2.00;99.90
7204;DHT22;3643;52.460;13.322;2022-12-10T04:34:23;-1.90;99.90
7204;DHT22;3643;52.460;13.322;2022-12-10T04:36:57;-2.00;99.90
7204;DHT22;3643;52.460;13.322;2022-12-10T04:39:26;-1.90;99.90
7204;DHT22;3643;52.460;13.322;2022-12-10T04:41:54;-1.90;99.90
7204;DHT22;3643;52.460;13.322;2022-12-10T04:44:25;-1.90;99.90
7204;DHT22;3643;52.460;13.322;2022-12-10T04:46:55;-1.90;99.90
7204;DHT22;3643;52.460;13.322;2022-12-10T04:49:25;-1.80;99.90
7204;DHT22;3643;52.460;13.322;2022-12-10T04:51:54;-1.80;99.90
7204;DHT22;3643;52.460;13.322;2022-12-10T04:54:24;-1.80;99.90
7204;DHT22;3643;52.460;13.322;2022-12-10T04:56:53;-1.80;99.90
7204;DHT22;3643;52.460;13.322;2022-12-10T04:59:21;-1.70;99.90
7204;DHT22;3643;52.460;13.322;2022-12-10T05:01:50;-1.70;99.90
7204;DHT22;3643;52.460;13.322;2022-12-10T05:04:20;-1.60;99.90
7204;DHT22;3643;52.460;13.322;2022-12-10T05:06:49;-1.60;99.90
7204;DHT22;3643;52.460;13.322;2022-12-10T05:09:19;-1.60;99.90
7204;DHT22;3643;52.460;13.322;2022-12-10T05:11:48;-1.60;99.90
7204;DHT22;3643;52.460;13.322;2022-12-10T05:14:17;-1.60;99.90
7204;DHT22;3643;52.460;13.322;2022-12-10T05:16:45;-1.70;99.90
7204;DHT22;3643;52.460;13.322;2022-12-10T05:19:13;-1.60;99.90
7204;DHT22;3643;52.460;13.322;2022-12-10T05:21:42;-1.60;99.90
7204;DHT22;3643;52.460;13.322;2022-12-10T05:24:25;-1.60;99.90
7204;DHT22;3643;52.460;13.322;2022-12-10T05:26:54;-1.50;99.90
7204;DHT22;3643;52.460;13.322;2022-12-10T05:29:22;-1.50;99.90
7204;DHT22;3643;52.460;13.322;2022-12-10T05:31:53;-1.40;99.90
7204;DHT22;3643;52.460;13.322;2022-12-10T05:34:21;-1.40;99.90
7204;DHT22;3643;52.460;13.322;2022-12-10T05:36:50;-1.40;99.90
7204;DHT22;3643;52.460;13.322;2022-12-10T05:39:19;-1.40;99.90
7204;DHT22;3643;52.460;13.322;2022-12-10T05:41:48;-1.30;99.90
7204;DHT22;3643;52.460;13.322;2022-12-10T05:44:16;-1.30;99.90
7204;DHT22;3643;52.460;13.322;2022-12-10T05:46:44;-1.30;99.90
7204;DHT22;3643;52.460;13.322;2022-12-10T05:49:14;-1.30;99.90
7204;DHT22;3643;52.460;13.322;2022-12-10T05:51:43;-1.30;99.90
7204;DHT22;3643;52.460;13.322;2022-12-10T05:54:11;-1.30;99.90
7204;DHT22;3643;52.460;13.322;2022-12-10T05:56:39;-1.10;99.90
7204;DHT22;3643;52.460;13.322;2022-12-10T05:59:09;-1.30;99.90
7204;DHT22;3643;52.460;13.322;2022-12-10T06:01:43;-1.30;99.90
7204;DHT22;3643;52.460;13.322;2022-12-10T06:04:11;-1.30;99.90
7204;DHT22;3643;52.460;13.322;2022-12-10T06:06:42;-1.20;99.90
7204;DHT22;3643;52.460;13.322;2022-12-10T06:09:12;-1.20;99.90
7204;DHT22;3643;52.460;13.322;2022-12-10T06:11:41;-1.10;99.90
7204;DHT22;3643;52.460;13.322;2022-12-10T06:14:11;-1.10;99.90
7204;DHT22;3643;52.460;13.322;2022-12-10T06:16:40;-1.00;99.90
7204;DHT22;3643;52.460;13.322;2022-12-10T06:19:09;-1.10;99.90
7204;DHT22;3643;52.460;13.322;2022-12-10T06:21:42;0.20;99.90
7204;DHT22;3643;52.460;13.322;2022-12-10T06:24:10;-2.00;99.90
7204;DHT22;3643;52.460;13.322;2022-12-10T06:26:38;-0.90;99.90
7204;DHT22;3643;52.460;13.322;2022-12-10T06:29:06;-1.10;99.90
7204;DHT22;3643;52.460;13.322;2022-12-10T06:31:36;-1.00;99.90
7204;DHT22;3643;52.460;13.322;2022-12-10T06:34:04;-1.00;99.90
7204;DHT22;3643;52.460;13.322;2022-12-10T06:36:33;-1.10;99.90
7204;DHT22;3643;52.460;13.322;2022-12-10T06:39:03;-0.90;99.90
7204;DHT22;3643;52.460;13.322;2022-12-10T06:41:31;-1.00;99.90
7204;DHT22;3643;52.460;13.322;2022-12-10T06:43:59;-0.80;99.90
7204;DHT22;3643;52.460;13.322;2022-12-10T06:46:27;-0.90;99.90
7204;DHT22;3643;52.460;13.322;2022-12-10T06:48:57;-1.00;99.90
7204;DHT22;3643;52.460;13.322;2022-12-10T06:51:25;-1.00;99.90
7204;DHT22;3643;52.460;13.322;2022-12-10T06:53:54;-1.00;99.90
7204;DHT22;3643;52.460;13.322;2022-12-10T06:56:22;-1.00;99.90
7204;DHT22;3643;52.460;13.322;2022-12-10T06:58:54;-1.00;99.90
7204;DHT22;3643;52.460;13.322;2022-12-10T07:01:23;-1.00;99.90
7204;DHT22;3643;52.460;13.322;2022-12-10T07:03:56;-1.00;99.90
7204;DHT22;3643;52.460;13.322;2022-12-10T07:06:26;-1.00;99.90
7204;DHT22;3643;52.460;13.322;2022-12-10T07:08:55;-1.10;99.90
7204;DHT22;3643;52.460;13.322;2022-12-10T07:11:24;-0.70;99.90
7204;DHT22;3643;52.460;13.322;2022-12-10T07:13:52;-0.90;99.90
7204;DHT22;3643;52.460;13.322;2022-12-10T07:16:24;-1.00;99.90
7204;DHT22;3643;52.460;13.322;2022-12-10T07:18:54;-1.00;99.90
7204;DHT22;3643;52.460;13.322;2022-12-10T07:21:28;-1.00;99.90
7204;DHT22;3643;52.460;13.322;2022-12-10T07:24:01;-1.00;99.90
7204;DHT22;3643;52.460;13.322;2022-12-10T07:26:31;-0.70;99.90
7204;DHT22;3643;52.460;13.322;2022-12-10T07:29:00;0.30;99.90
7204;DHT22;3643;52.460;13.322;2022-12-10T07:31:29;-1.10;99.90
7204;DHT22;3643;52.460;13.322;2022-12-10T07:33:58;-1.10;99.90
7204;DHT22;3643;52.460;13.322;2022-12-10T07:36:29;-1.00;99.90
7204;DHT22;3643;52.460;13.322;2022-12-10T07:38:58;-1.10;99.90
7204;DHT22;3643;52.460;13.322;2022-12-10T07:41:26;-1.10;99.90
7204;DHT22;3643;52.460;13.322;2022-12-10T07:43:54;-1.00;99.90
7204;DHT22;3643;52.460;13.322;2022-12-10T07:46:24;-0.80;99.90
7204;DHT22;3643;52.460;13.322;2022-12-10T07:48:53;-1.00;99.90
7204;DHT22;3643;52.460;13.322;2022-12-10T07:51:22;-0.90;99.90
7204;DHT22;3643;52.460;13.322;2022-12-10T07:53:53;-1.00;99.90
7204;DHT22;3643;52.460;13.322;2022-12-10T07:56:22;-1.00;99.90
7204;DHT22;3643;52.460;13.322;2022-12-10T07:58:51;-1.00;99.90
7204;DHT22;3643;52.460;13.322;2022-12-10T08:01:22;-1.00;99.90
7204;DHT22;3643;52.460;13.322;2022-12-10T08:03:54;-1.00;99.90
7204;DHT22;3643;52.460;13.322;2022-12-10T08:06:25;-1.10;99.90
7204;DHT22;3643;52.460;13.322;2022-12-10T08:08:54;-1.00;99.90
7204;DHT22;3643;52.460;13.322;2022-12-10T08:11:24;-0.90;99.90
7204;DHT22;3643;52.460;13.322;2022-12-10T08:13:54;-1.00;99.90
7204;DHT22;3643;52.460;13.322;2022-12-10T08:16:25;-1.00;99.90
7204;DHT22;3643;52.460;13.322;2022-12-10T08:18:56;-0.90;99.90
7204;DHT22;3643;52.460;13.322;2022-12-10T08:21:26;-0.90;99.90
7204;DHT22;3643;52.460;13.322;2022-12-10T08:23:57;-0.80;99.90
7204;DHT22;3643;52.460;13.322;2022-12-10T08:26:27;-0.90;99.90
7204;DHT22;3643;52.460;13.322;2022-12-10T08:28:57;-0.90;99.90
7204;DHT22;3643;52.460;13.322;2022-12-10T08:31:28;-0.70;99.90
7204;DHT22;3643;52.460;13.322;2022-12-10T08:34:03;-0.90;99.90
7204;DHT22;3643;52.460;13.322;2022-12-10T08:36:33;-0.90;99.90
7204;DHT22;3643;52.460;13.322;2022-12-10T08:41:38;-0.90;99.90
7204;DHT22;3643;52.460;13.322;2022-12-10T08:44:06;-0.80;99.90
7204;DHT22;3643;52.460;13.322;2022-12-10T08:46:34;-0.90;99.90
7204;DHT22;3643;52.460;13.322;2022-12-10T08:49:03;-0.90;99.90
7204;DHT22;3643;52.460;13.322;2022-12-10T08:51:32;-0.90;99.90
7204;DHT22;3643;52.460;13.322;2022-12-10T08:54:01;-0.90;99.90
7204;DHT22;3643;52.460;13.322;2022-12-10T08:56:29;-0.90;99.90
7204;DHT22;3643;52.460;13.322;2022-12-10T08:59:00;-0.80;99.90
7204;DHT22;3643;52.460;13.322;2022-12-10T09:01:28;-0.80;99.90
7204;DHT22;3643;52.460;13.322;2022-12-10T09:03:56;-0.80;99.90
7204;DHT22;3643;52.460;13.322;2022-12-10T09:06:25;-0.80;99.90
7204;DHT22;3643;52.460;13.322;2022-12-10T09:08:54;-0.80;99.90
7204;DHT22;3643;52.460;13.322;2022-12-10T09:11:24;-0.70;99.90
7204;DHT22;3643;52.460;13.322;2022-12-10T09:13:53;-0.80;99.90
7204;DHT22;3643;52.460;13.322;2022-12-10T09:16:27;-0.70;99.90
7204;DHT22;3643;52.460;13.322;2022-12-10T09:18:56;-0.70;99.90
7204;DHT22;3643;52.460;13.322;2022-12-10T09:21:24;-0.70;99.90
7204;DHT22;3643;52.460;13.322;2022-12-10T09:23:53;-0.70;99.90
7204;DHT22;3643;52.460;13.322;2022-12-10T09:26:21;-0.60;99.90
7204;DHT22;3643;52.460;13.322;2022-12-10T09:28:51;-0.60;99.90
7204;DHT22;3643;52.460;13.322;2022-12-10T09:31:22;-0.60;99.90
7204;DHT22;3643;52.460;13.322;2022-12-10T09:33:52;-0.60;99.90
7204;DHT22;3643;52.460;13.322;2022-12-10T09:36:21;-0.60;99.90
7204;DHT22;3643;52.460;13.322;2022-12-10T09:38:56;-0.50;99.90
7204;DHT22;3643;52.460;13.322;2022-12-10T09:41:36;-0.50;99.90
7204;DHT22;3643;52.460;13.322;2022-12-10T09:44:13;-0.50;99.90
7204;DHT22;3643;52.460;13.322;2022-12-10T09:46:51;-0.50;99.90
7204;DHT22;3643;52.460;13.322;2022-12-10T09:49:29;-0.50;99.90
7204;DHT22;3643;52.460;13.322;2022-12-10T09:52:04;-0.40;99.90
7204;DHT22;3643;52.460;13.322;2022-12-10T09:54:36;-0.30;99.90
7204;DHT22;3643;52.460;13.322;2022-12-10T09:57:14;-0.20;99.90
7204;DHT22;3643;52.460;13.322;2022-12-10T09:59:47;-0.10;99.90
7204;DHT22;3643;52.460;13.322;2022-12-10T10:02:21;-0.10;99.90
7204;DHT22;3643;52.460;13.322;2022-12-10T10:04:51;-0.20;99.90
7204;DHT22;3643;52.460;13.322;2022-12-10T10:07:21;-0.20;99.90
7204;DHT22;3643;52.460;13.322;2022-12-10T10:09:55;-0.20;99.90
7204;DHT22;3643;52.460;13.322;2022-12-10T10:12:26;-0.20;99.90
7204;DHT22;3643;52.460;13.322;2022-12-10T10:14:55;-0.30;99.90
7204;DHT22;3643;52.460;13.322;2022-12-10T10:17:29;-0.30;99.90
7204;DHT22;3643;52.460;13.322;2022-12-10T10:20:00;-0.20;99.90
7204;DHT22;3643;52.460;13.322;2022-12-10T10:22:28;-0.20;99.90
7204;DHT22;3643;52.460;13.322;2022-12-10T10:24:57;-0.10;99.90
7204;DHT22;3643;52.460;13.322;2022-12-10T10:27:31;-0.10;99.90
7204;DHT22;3643;52.460;13.322;2022-12-10T10:30:02;0.00;99.90
7204;DHT22;3643;52.460;13.322;2022-12-10T10:32:47;0.00;99.90
7204;DHT22;3643;52.460;13.322;2022-12-10T10:35:22;0.00;99.90
7204;DHT22;3643;52.460;13.322;2022-12-10T10:37:55;0.00;99.90
7204;DHT22;3643;52.460;13.322;2022-12-10T10:40:27;0.10;99.90
7204;DHT22;3643;52.460;13.322;2022-12-10T10:42:57;0.10;99.90
7204;DHT22;3643;52.460;13.322;2022-12-10T10:45:34;0.00;99.90
7204;DHT22;3643;52.460;13.322;2022-12-10T10:48:13;0.10;99.90
7204;DHT22;3643;52.460;13.322;2022-12-10T10:50:43;0.00;99.90
7204;DHT22;3643;52.460;13.322;2022-12-10T10:53:39;0.10;99.90
7204;DHT22;3643;52.460;13.322;2022-12-10T10:56:11;0.20;99.90
7204;DHT22;3643;52.460;13.322;2022-12-10T10:58:55;0.20;99.90
7204;DHT22;3643;52.460;13.322;2022-12-10T11:01:25;0.20;99.90
7204;DHT22;3643;52.460;13.322;2022-12-10T11:03:58;0.20;99.90
7204;DHT22;3643;52.460;13.322;2022-12-10T11:06:28;0.30;99.90
7204;DHT22;3643;52.460;13.322;2022-12-10T11:08:58;0.30;99.90
7204;DHT22;3643;52.460;13.322;2022-12-10T11:11:33;0.30;99.90
7204;DHT22;3643;52.460;13.322;2022-12-10T11:14:23;0.40;99.90
7204;DHT22;3643;52.460;13.322;2022-12-10T11:17:07;0.50;99.90
7204;DHT22;3643;52.460;13.322;2022-12-10T11:19:45;0.40;99.90
7204;DHT22;3643;52.460;13.322;2022-12-10T11:22:22;0.40;99.90
7204;DHT22;3643;52.460;13.322;2022-12-10T11:24:51;0.20;99.90
7204;DHT22;3643;52.460;13.322;2022-12-10T11:27:31;0.20;99.90
7204;DHT22;3643;52.460;13.322;2022-12-10T11:30:04;0.20;99.90
7204;DHT22;3643;52.460;13.322;2022-12-10T11:32:48;0.10;99.90
7204;DHT22;3643;52.460;13.322;2022-12-10T11:35:33;0.40;99.90
7204;DHT22;3643;52.460;13.322;2022-12-10T11:38:10;0.20;99.90
7204;DHT22;3643;52.460;13.322;2022-12-10T11:40:48;0.20;99.90
7204;DHT22;3643;52.460;13.322;2022-12-10T11:43:35;0.20;99.90
7204;DHT22;3643;52.460;13.322;2022-12-10T11:46:32;0.10;99.90
7204;DHT22;3643;52.460;13.322;2022-12-10T11:49:14;0.10;99.90
7204;DHT22;3643;52.460;13.322;2022-12-10T11:51:48;0.10;99.90
7204;DHT22;3643;52.460;13.322;2022-12-10T11:54:34;0.10;99.90
7204;DHT22;3643;52.460;13.322;2022-12-10T11:57:13;0.00;99.90
7204;DHT22;3643;52.460;13.322;2022-12-10T11:59:49;0.00;99.90
7204;DHT22;3643;52.460;13.322;2022-12-10T12:03:12;0.00;99.90
7204;DHT22;3643;52.460;13.322;2022-12-10T12:06:01;0.00;99.90
7204;DHT22;3643;52.460;13.322;2022-12-10T12:08:43;-0.10;99.90
7204;DHT22;3643;52.460;13.322;2022-12-10T12:13:57;-0.10;99.90
7204;DHT22;3643;52.460;13.322;2022-12-10T12:16:31;-0.10;99.90
7204;DHT22;3643;52.460;13.322;2022-12-10T12:19:04;-0.10;99.90
7204;DHT22;3643;52.460;13.322;2022-12-10T12:21:36;-0.10;99.90
7204;DHT22;3643;52.460;13.322;2022-12-10T12:24:12;-0.10;99.90
7204;DHT22;3643;52.460;13.322;2022-12-10T12:26:48;-0.10;99.90
7204;DHT22;3643;52.460;13.322;2022-12-10T12:29:20;-0.10;99.90
7204;DHT22;3643;52.460;13.322;2022-12-10T12:31:56;-0.20;99.90
7204;DHT22;3643;52.460;13.322;2022-12-10T12:34:28;-0.20;99.90
7204;DHT22;3643;52.460;13.322;2022-12-10T12:37:02;-0.30;99.90
7204;DHT22;3643;52.460;13.322;2022-12-10T12:39:36;-0.30;99.90
7204;DHT22;3643;52.460;13.322;2022-12-10T12:42:16;-0.20;99.90
7204;DHT22;3643;52.460;13.322;2022-12-10T12:44:55;-0.20;99.90
7204;DHT22;3643;52.460;13.322;2022-12-10T12:47:34;-0.20;99.90
7204;DHT22;3643;52.460;13.322;2022-12-10T12:52:45;-0.10;99.90
7204;DHT22;3643;52.460;13.322;2022-12-10T12:55:22;-0.10;99.90
7204;DHT22;3643;52.460;13.322;2022-12-10T12:57:54;-0.20;99.90
7204;DHT22;3643;52.460;13.322;2022-12-10T13:03:17;-0.20;99.90
7204;DHT22;3643;52.460;13.322;2022-12-10T13:05:49;-0.20;99.90
7204;DHT22;3643;52.460;13.322;2022-12-10T13:08:29;-0.20;99.90
7204;DHT22;3643;52.460;13.322;2022-12-10T13:11:16;-0.20;99.90
7204;DHT22;3643;52.460;13.322;2022-12-10T13:17:07;-0.20;99.90
7204;DHT22;3643;52.460;13.322;2022-12-10T13:19:36;-0.20;99.90
7204;DHT22;3643;52.460;13.322;2022-12-10T13:22:08;-0.20;99.90
7204;DHT22;3643;52.460;13.322;2022-12-10T13:27:32;-0.20;99.90
7204;DHT22;3643;52.460;13.322;2022-12-10T13:30:03;-0.20;99.90
7204;DHT22;3643;52.460;13.322;2022-12-10T13:32:45;-0.20;99.90
7204;DHT22;3643;52.460;13.322;2022-12-10T13:35:27;-0.10;99.90
7204;DHT22;3643;52.460;13.322;2022-12-10T13:38:21;-0.20;99.90
7204;DHT22;3643;52.460;13.322;2022-12-10T13:40:59;-0.20;99.90
7204;DHT22;3643;52.460;13.322;2022-12-10T13:43:58;-0.20;99.90
7204;DHT22;3643;52.460;13.322;2022-12-10T13:46:59;-0.30;99.90
7204;DHT22;3643;52.460;13.322;2022-12-10T13:49:35;-0.20;99.90
7204;DHT22;3643;52.460;13.322;2022-12-10T13:52:16;-0.30;99.90
7204;DHT22;3643;52.460;13.322;2022-12-10T13:55:09;-0.30;99.90
7204;DHT22;3643;52.460;13.322;2022-12-10T13:58:01;-0.30;99.90
7204;DHT22;3643;52.460;13.322;2022-12-10T14:00:41;-0.40;99.90
7204;DHT22;3643;52.460;13.322;2022-12-10T14:03:35;-0.40;99.90
7204;DHT22;3643;52.460;13.322;2022-12-10T14:06:16;-0.40;99.90
7204;DHT22;3643;52.460;13.322;2022-12-10T14:08:55;-0.50;99.90
7204;DHT22;3643;52.460;13.322;2022-12-10T14:11:27;-0.50;99.90
7204;DHT22;3643;52.460;13.322;2022-12-10T14:14:05;-0.50;99.90
7204;DHT22;3643;52.460;13.322;2022-12-10T14:16:36;-0.50;99.90
7204;DHT22;3643;52.460;13.322;2022-12-10T14:19:08;-0.50;99.90
7204;DHT22;3643;52.460;13.322;2022-12-10T14:21:42;-0.50;99.90
7204;DHT22;3643;52.460;13.322;2022-12-10T14:24:28;-0.50;99.90
7204;DHT22;3643;52.460;13.322;2022-12-10T14:26:59;-0.50;99.90
7204;DHT22;3643;52.460;13.322;2022-12-10T14:29:28;-0.50;99.90
7204;DHT22;3643;52.460;13.322;2022-12-10T14:32:04;-0.50;99.90
7204;DHT22;3643;52.460;13.322;2022-12-10T14:34:33;-0.40;99.90
7204;DHT22;3643;52.460;13.322;2022-12-10T14:37:03;-0.50;99.90
7204;DHT22;3643;52.460;13.322;2022-12-10T14:39:33;-0.50;99.90
7204;DHT22;3643;52.460;13.322;2022-12-10T14:42:04;-0.60;99.90
7204;DHT22;3643;52.460;13.322;2022-12-10T14:44:36;-0.70;99.90
7204;DHT22;3643;52.460;13.322;2022-12-10T14:47:13;-0.20;99.90
7204;DHT22;3643;52.460;13.322;2022-12-10T14:49:44;-0.70;99.90
7204;DHT22;3643;52.460;13.322;2022-12-10T14:52:15;-0.70;99.90
7204;DHT22;3643;52.460;13.322;2022-12-10T14:54:45;-0.70;99.90
7204;DHT22;3643;52.460;13.322;2022-12-10T14:57:18;-0.70;99.90
7204;DHT22;3643;52.460;13.322;2022-12-10T14:59:51;-0.70;99.90
7204;DHT22;3643;52.460;13.322;2022-12-10T15:02:27;-0.70;99.90
7204;DHT22;3643;52.460;13.322;2022-12-10T15:04:57;-0.70;99.90
7204;DHT22;3643;52.460;13.322;2022-12-10T15:07:32;-0.70;99.90
7204;DHT22;3643;52.460;13.322;2022-12-10T15:10:07;-0.70;99.90
7204;DHT22;3643;52.460;13.322;2022-12-10T15:12:43;-0.70;99.90
7204;DHT22;3643;52.460;13.322;2022-12-10T15:15:15;-0.70;99.90
7204;DHT22;3643;52.460;13.322;2022-12-10T15:17:58;-0.70;99.90
7204;DHT22;3643;52.460;13.322;2022-12-10T15:20:29;-0.70;99.90
7204;DHT22;3643;52.460;13.322;2022-12-10T15:23:18;-0.70;99.90
7204;DHT22;3643;52.460;13.322;2022-12-10T15:25:51;-0.70;99.90
7204;DHT22;3643;52.460;13.322;2022-12-10T15:28:24;-0.80;99.90
7204;DHT22;3643;52.460;13.322;2022-12-10T15:30:56;-0.80;99.90
7204;DHT22;3643;52.460;13.322;2022-12-10T15:33:31;-0.80;99.90
7204;DHT22;3643;52.460;13.322;2022-12-10T15:36:01;-0.80;99.90
7204;DHT22;3643;52.460;13.322;2022-12-10T15:38:30;-0.80;99.90
7204;DHT22;3643;52.460;13.322;2022-12-10T15:41:19;-0.80;99.90
7204;DHT22;3643;52.460;13.322;2022-12-10T15:43:57;-0.70;99.90
7204;DHT22;3643;52.460;13.322;2022-12-10T15:46:27;-0.60;99.90
7204;DHT22;3643;52.460;13.322;2022-12-10T15:48:57;-0.70;99.90
7204;DHT22;3643;52.460;13.322;2022-12-10T15:51:25;-0.70;99.90
7204;DHT22;3643;52.460;13.322;2022-12-10T15:53:56;-0.70;99.90
7204;DHT22;3643;52.460;13.322;2022-12-10T15:56:24;-0.70;99.90
7204;DHT22;3643;52.460;13.322;2022-12-10T15:58:53;-0.70;99.90
7204;DHT22;3643;52.460;13.322;2022-12-10T16:01:21;-0.70;99.90
7204;DHT22;3643;52.460;13.322;2022-12-10T16:03:51;-0.70;99.90
7204;DHT22;3643;52.460;13.322;2022-12-10T16:06:21;-0.60;99.90
7204;DHT22;3643;52.460;13.322;2022-12-10T16:08:49;-0.60;99.90
7204;DHT22;3643;52.460;13.322;2022-12-10T16:11:18;-0.70;99.90
7204;DHT22;3643;52.460;13.322;2022-12-10T16:13:49;-0.80;99.90
7204;DHT22;3643;52.460;13.322;2022-12-10T16:16:19;-0.70;99.90
7204;DHT22;3643;52.460;13.322;2022-12-10T16:18:48;-0.70;99.90
7204;DHT22;3643;52.460;13.322;2022-12-10T16:21:18;-0.70;99.90
7204;DHT22;3643;52.460;13.322;2022-12-10T16:23:48;-1.50;99.90
7204;DHT22;3643;52.460;13.322;2022-12-10T16:26:20;-0.70;99.90
7204;DHT22;3643;52.460;13.322;2022-12-10T16:28:49;-0.80;99.90
7204;DHT22;3643;52.460;13.322;2022-12-10T16:31:20;-0.70;99.90
7204;DHT22;3643;52.460;13.322;2022-12-10T16:33:48;-0.80;99.90
7204;DHT22;3643;52.460;13.322;2022-12-10T16:36:19;-0.80;99.90
7204;DHT22;3643;52.460;13.322;2022-12-10T16:38:48;-0.80;99.90
7204;DHT22;3643;52.460;13.322;2022-12-10T16:41:18;-0.80;99.90
7204;DHT22;3643;52.460;13.322;2022-12-10T16:43:48;-0.80;99.90